Time;durP1;ratioP1;P1;durP2;ratioP2;P2;SDS_P1;SDS_P2;PMS_P1;PMS_P2;Temp;Humidity;BMP_temperature;BMP_pressure;BME280_temperature;BME280_humidity;BME280_pressure;Samples;Min_cycle;Max_cycle;Signal;HPM_P1;HPM_P2
2021/05/28 00:01:41;;;;;;;3.33;3.13;;;;;;;12.14;70.92;101879.66;6232580;28;20242;-51
2021/05/28 00:05:01;;;;;;;3.70;3.27;;;;;;;12.25;70.97;101882.28;6244854;28;21071;-52
2021/05/28 00:08:22;;;;;;;4.30;3.23;;;;;;;12.11;71.38;101884.88;6240530;28;20227;-53
2021/05/28 00:11:42;;;;;;;3.90;3.50;;;;;;;12.30;70.68;101886.63;6247976;28;20553;-51
2021/05/28 00:15:04;;;;;;;2.93;2.73;;;;;;;12.32;71.35;101886.66;6234467;28;20240;-50
2021/05/28 00:18:25;;;;;;;3.23;3.03;;;;;;;12.37;71.23;101893.63;6214404;28;20498;-50
2021/05/28 00:21:46;;;;;;;3.67;3.37;;;;;;;12.32;71.14;101900.56;6219355;28;20575;-52
2021/05/28 00:25:07;;;;;;;6.00;3.93;;;;;;;11.95;73.09;101899.63;6224856;28;20236;-51
2021/05/28 00:28:28;;;;;;;11.73;4.27;;;;;;;12.02;72.37;101904.88;6226664;28;20347;-54
2021/05/28 00:31:48;;;;;;;4.40;4.00;;;;;;;12.07;72.21;101910.09;6251092;28;20552;-51
2021/05/28 00:35:10;;;;;;;4.70;4.20;;;;;;;11.86;71.86;101908.28;6250066;28;20731;-54
2021/05/28 00:38:30;;;;;;;4.83;4.40;;;;;;;12.07;71.34;101906.63;6252045;28;20257;-47
2021/05/28 00:41:51;;;;;;;7.23;4.27;;;;;;;11.90;71.52;101907.44;6252226;28;20449;-50
2021/05/28 00:45:13;;;;;;;6.07;4.03;;;;;;;12.06;71.25;101912.69;6252902;28;20598;-48
2021/05/28 00:48:33;;;;;;;4.50;3.67;;;;;;;12.04;71.26;101909.22;6251315;28;20243;-51
2021/05/28 00:51:55;;;;;;;6.03;4.70;;;;;;;11.93;71.36;101920.50;6216798;28;20849;-51
2021/05/28 00:55:15;;;;;;;7.23;4.53;;;;;;;11.69;71.78;101918.69;6231601;28;20318;-50
2021/05/28 00:58:36;;;;;;;6.23;4.00;;;;;;;11.75;71.78;101917.84;6222294;28;20228;-51
2021/05/28 01:01:56;;;;;;;7.40;4.40;;;;;;;11.50;73.21;101928.16;6232992;28;20232;-50
2021/05/28 01:05:17;;;;;;;6.10;5.03;;;;;;;11.58;72.56;101929.06;6226507;28;20480;-52
2021/05/28 01:08:38;;;;;;;10.70;6.00;;;;;;;11.55;72.87;101939.47;6218896;28;20562;-49
2021/05/28 01:11:59;;;;;;;5.33;4.80;;;;;;;11.61;72.79;101947.34;6240569;28;20614;-53
2021/05/28 01:15:19;;;;;;;7.53;5.40;;;;;;;11.56;72.65;101946.44;6244587;28;20246;-51
2021/05/28 01:18:40;;;;;;;6.17;5.27;;;;;;;11.54;72.96;101960.34;6243107;28;20224;-51
2021/05/28 01:22:04;;;;;;;6.67;5.70;;;;;;;11.62;73.04;101954.28;6248080;28;20322;-49
2021/05/28 01:25:25;;;;;;;11.13;6.57;;;;;;;11.54;72.92;101956.00;6249524;28;20911;-50
2021/05/28 01:28:46;;;;;;;11.83;6.53;;;;;;;11.45;73.32;101968.97;6248902;28;20235;-52
2021/05/28 01:32:06;;;;;;;13.50;6.43;;;;;;;11.44;72.88;101964.66;6250920;28;20235;-50
2021/05/28 01:35:26;;;;;;;7.03;6.27;;;;;;;11.14;73.78;101968.78;6252451;28;20224;-47
2021/05/28 01:38:48;;;;;;;10.03;6.83;;;;;;;11.29;72.95;101967.16;6247057;28;20216;-52
2021/05/28 01:42:08;;;;;;;6.90;5.43;;;;;;;11.46;72.35;101960.31;6257433;28;20609;-51
2021/05/28 01:45:29;;;;;;;9.73;6.93;;;;;;;11.29;73.09;101968.03;6251090;28;20267;-49
2021/05/28 01:48:50;;;;;;;7.97;5.83;;;;;;;11.33;72.51;101966.31;6241773;28;20640;-49
2021/05/28 01:52:11;;;;;;;7.23;6.00;;;;;;;11.30;72.20;101968.88;6240367;28;20266;-51
2021/05/28 01:55:32;;;;;;;8.17;6.47;;;;;;;11.34;72.55;101973.25;6250823;28;20612;-52
2021/05/28 01:58:54;;;;;;;11.80;6.03;;;;;;;11.20;72.39;101975.78;6250812;28;20228;-53
2021/05/28 02:02:15;;;;;;;6.40;5.30;;;;;;;11.21;72.09;101981.00;6248997;28;20224;-50
2021/05/28 02:05:36;;;;;;;7.33;5.77;;;;;;;11.26;71.82;101988.00;6249435;28;20228;-49
2021/05/28 02:08:56;;;;;;;5.93;5.30;;;;;;;11.19;71.61;101993.16;6237705;28;20251;-50
2021/05/28 02:12:19;;;;;;;8.13;5.87;;;;;;;11.20;71.79;101988.81;6244083;28;20232;-53
2021/05/28 02:15:39;;;;;;;7.97;4.73;;;;;;;10.98;71.99;101993.00;6249315;28;20605;-51
2021/05/28 02:19:00;;;;;;;11.73;5.57;;;;;;;10.86;72.82;101996.38;6249457;28;20228;-53
2021/05/28 02:22:20;;;;;;;6.50;4.73;;;;;;;10.91;72.31;101993.81;6236145;28;20227;-49
2021/05/28 02:25:41;;;;;;;6.83;5.70;;;;;;;11.09;71.51;102003.50;6249141;28;20323;-50
2021/05/28 02:29:02;;;;;;;9.07;5.10;;;;;;;11.00;71.85;102007.78;6248034;28;20232;-50
2021/05/28 02:32:22;;;;;;;6.00;5.17;;;;;;;11.07;71.36;102011.34;6241725;28;20227;-52
2021/05/28 02:35:42;;;;;;;6.37;5.77;;;;;;;10.74;72.20;102006.69;6257057;28;20239;-49
2021/05/28 02:39:04;;;;;;;6.10;5.50;;;;;;;10.94;71.63;102014.69;6246712;28;20330;-49
2021/05/28 02:42:25;;;;;;;7.43;5.10;;;;;;;10.98;70.94;102012.13;6251873;28;20224;-51
2021/05/28 02:45:47;;;;;;;5.93;4.53;;;;;;;10.83;71.64;102019.81;6247457;28;20311;-51
2021/05/28 02:49:08;;;;;;;8.97;5.90;;;;;;;10.74;71.93;102023.22;6252106;28;20240;-48
2021/05/28 02:52:28;;;;;;;5.63;5.10;;;;;;;10.90;71.26;102028.56;6250761;28;20239;-50
2021/05/28 02:55:49;;;;;;;7.27;4.77;;;;;;;10.92;70.83;102032.06;6254244;28;21860;-50
2021/05/28 02:59:09;;;;;;;8.40;5.67;;;;;;;11.02;70.36;102034.75;6252931;28;20608;-53
2021/05/28 03:02:31;;;;;;;7.27;5.43;;;;;;;10.94;70.64;102035.53;6253162;28;20224;-53
2021/05/28 03:05:52;;;;;;;20.13;8.53;;;;;;;10.82;71.24;102042.38;6244105;28;20232;-50
2021/05/28 03:09:12;;;;;;;9.80;7.73;;;;;;;10.92;70.42;102048.56;6248886;28;20235;-53
2021/05/28 03:12:32;;;;;;;8.97;5.87;;;;;;;10.97;70.41;102056.41;6249357;28;20248;-52
2021/05/28 03:15:53;;;;;;;6.70;4.60;;;;;;;10.93;69.88;102059.84;6235559;28;20446;-51
2021/05/28 03:19:20;;;;;;;7.23;5.83;;;;;;;10.97;69.78;102066.84;6237285;28;20618;-52
2021/05/28 03:22:41;;;;;;;7.07;5.43;;;;;;;10.98;70.46;102068.59;6245928;28;20236;-49
2021/05/28 03:26:01;;;;;;;7.50;5.83;;;;;;;11.16;69.13;102073.97;6245171;28;20227;-52
2021/05/28 03:29:22;;;;;;;6.00;4.30;;;;;;;11.15;68.86;102072.22;6250994;28;20711;-50
2021/05/28 03:32:42;;;;;;;9.83;7.00;;;;;;;11.35;67.92;102068.91;6253935;28;20223;-54
2021/05/28 03:36:05;;;;;;;5.73;5.20;;;;;;;11.38;68.17;102077.63;6253347;28;20232;-51
2021/05/28 03:39:26;;;;;;;6.40;5.10;;;;;;;11.55;66.89;102084.69;6255648;28;20232;-52
2021/05/28 03:42:46;;;;;;;6.17;5.57;;;;;;;11.46;67.57;102077.69;6251968;28;20232;-49
2021/05/28 03:46:07;;;;;;;5.67;5.13;;;;;;;11.28;67.33;102082.75;6241989;28;20251;-48
2021/05/28 03:49:28;;;;;;;7.53;4.17;;;;;;;11.21;67.14;102079.22;6248409;28;20240;-52
2021/05/28 03:52:49;;;;;;;6.43;5.83;;;;;;;11.38;66.72;102076.72;6251826;28;20248;-50
2021/05/28 03:56:09;;;;;;;6.80;5.40;;;;;;;11.37;66.28;102077.63;6256279;28;20236;-50
2021/05/28 03:59:29;;;;;;;4.83;3.90;;;;;;;11.49;66.15;102082.91;6245424;28;20597;-53
2021/05/28 04:02:50;;;;;;;4.60;4.00;;;;;;;11.30;66.49;102078.41;6246284;28;20235;-52
2021/05/28 04:06:10;;;;;;;6.47;4.77;;;;;;;11.36;66.57;102083.69;6249362;28;20704;-48
2021/05/28 04:09:32;;;;;;;6.23;5.63;;;;;;;11.20;67.25;102077.47;6254648;28;20251;-52
2021/05/28 04:12:53;;;;;;;7.37;5.73;;;;;;;11.29;67.48;102081.91;6239498;28;20232;-50
2021/05/28 04:16:14;;;;;;;6.17;4.80;;;;;;;11.12;67.83;102076.53;6248989;28;20232;-50
2021/05/28 04:19:34;;;;;;;5.27;4.77;;;;;;;11.36;67.46;102079.34;6241130;28;20228;-54
2021/05/28 04:22:54;;;;;;;6.73;5.30;;;;;;;11.37;67.39;102082.84;6254418;28;20244;-49
2021/05/28 04:26:16;;;;;;;8.90;5.10;;;;;;;11.62;67.15;102082.13;6252082;28;20223;-50
2021/05/28 04:29:36;;;;;;;10.43;6.13;;;;;;;11.43;67.77;102083.72;6251682;28;20493;-52
2021/05/28 04:32:57;;;;;;;5.60;4.47;;;;;;;11.56;67.63;102089.06;6257165;28;20536;-54
2021/05/28 04:36:17;;;;;;;6.13;5.63;;;;;;;11.61;67.94;102088.25;6252869;28;20578;-54
2021/05/28 04:39:38;;;;;;;5.90;4.77;;;;;;;11.52;68.20;102093.38;6247953;28;20804;-50
2021/05/28 04:42:59;;;;;;;7.80;5.83;;;;;;;11.63;68.27;102086.50;6247612;28;20322;-51
2021/05/28 04:46:20;;;;;;;7.83;5.60;;;;;;;11.74;67.72;102077.88;6249916;28;20224;-52
2021/05/28 04:49:40;;;;;;;5.23;4.67;;;;;;;11.54;69.32;102090.78;6252813;28;20543;-54
2021/05/28 04:53:01;;;;;;;6.70;4.67;;;;;;;11.77;68.77;102085.72;6248872;28;20235;-54
2021/05/28 04:56:22;;;;;;;5.73;5.00;;;;;;;11.92;68.34;102085.84;6234924;28;20223;-49
2021/05/28 04:59:43;;;;;;;7.10;5.50;;;;;;;11.89;68.41;102092.75;6252364;28;20236;-51
2021/05/28 05:03:04;;;;;;;7.43;4.87;;;;;;;11.90;68.95;102090.16;6246927;28;20608;-54
2021/05/28 05:06:24;;;;;;;11.50;6.20;;;;;;;11.99;68.95;102092.84;6248766;28;20231;-50
2021/05/28 05:09:45;;;;;;;7.47;4.37;;;;;;;11.80;69.69;102090.94;6243996;28;20236;-54
2021/05/28 05:13:12;;;;;;;8.20;6.03;;;;;;;11.92;70.18;102093.69;6240816;28;20228;-53
2021/05/28 05:16:34;;;;;;;8.83;5.23;;;;;;;11.88;69.99;102102.31;6243162;28;20248;-48
2021/05/28 05:19:54;;;;;;;9.90;6.93;;;;;;;12.01;70.44;102096.31;6227874;28;20555;-51
2021/05/28 05:23:15;;;;;;;7.60;5.77;;;;;;;11.97;70.75;102105.00;6251996;28;20232;-52
2021/05/28 05:26:36;;;;;;;10.10;6.27;;;;;;;12.16;70.58;102107.72;6243223;28;20517;-54
2021/05/28 05:29:56;;;;;;;10.53;6.13;;;;;;;12.07;71.06;102112.91;6238689;28;20485;-50
2021/05/28 05:33:17;;;;;;;7.93;7.13;;;;;;;12.31;71.02;102113.03;6237812;28;20243;-47
2021/05/28 05:36:40;;;;;;;9.73;8.83;;;;;;;12.09;70.30;102111.16;6238896;28;20340;-52
2021/05/28 05:40:00;;;;;;;11.17;9.70;;;;;;;12.47;69.26;102118.31;6235972;28;20231;-51
2021/05/28 05:43:21;;;;;;;9.87;8.87;;;;;;;12.20;69.33;102125.16;6251048;28;20259;-52
2021/05/28 05:46:41;;;;;;;10.70;9.13;;;;;;;12.28;68.42;102133.91;6244936;28;20724;-51
2021/05/28 05:50:04;;;;;;;11.03;9.93;;;;;;;12.01;69.81;102147.69;6242197;28;20235;-54
2021/05/28 05:53:24;;;;;;;9.10;8.23;;;;;;;12.23;68.16;102145.19;6229347;28;20259;-51
2021/05/28 05:56:45;;;;;;;9.73;8.93;;;;;;;12.07;69.53;102149.47;6245744;28;20311;-53
2021/05/28 06:00:07;;;;;;;8.80;8.00;;;;;;;11.78;69.58;102158.78;6248182;28;20224;-55
2021/05/28 06:03:28;;;;;;;7.70;6.90;;;;;;;11.85;68.99;102156.25;6225846;28;20229;-49
2021/05/28 06:06:49;;;;;;;9.60;8.50;;;;;;;12.01;68.57;102156.38;6211113;28;20232;-50
2021/05/28 06:10:11;;;;;;;7.17;6.53;;;;;;;12.04;68.62;102149.41;6230762;28;20240;-54
2021/05/28 06:13:32;;;;;;;7.67;6.87;;;;;;;11.95;70.63;102165.91;6220373;28;21632;-51
2021/05/28 06:16:52;;;;;;;7.77;7.00;;;;;;;12.46;68.39;102166.19;6206747;28;20243;-53
2021/05/28 06:20:13;;;;;;;6.90;6.27;;;;;;;12.30;67.32;102162.66;6237959;28;20228;-52
2021/05/28 06:23:34;;;;;;;7.60;5.83;;;;;;;12.09;66.90;102160.78;6223279;28;20366;-53
2021/05/28 06:26:55;;;;;;;6.27;5.67;;;;;;;12.55;65.68;102171.47;6232961;28;20235;-51
2021/05/28 06:30:17;;;;;;;6.17;5.50;;;;;;;12.52;65.23;102176.66;6229746;28;20235;-52
2021/05/28 06:33:38;;;;;;;7.33;6.30;;;;;;;12.70;64.94;102179.38;6231011;28;20342;-53
2021/05/28 06:37:00;;;;;;;9.00;6.50;;;;;;;12.54;65.21;102170.59;6223001;28;20243;-51
2021/05/28 06:40:21;;;;;;;7.40;5.40;;;;;;;13.04;64.72;102173.38;6225245;28;20231;-51
2021/05/28 06:43:42;;;;;;;7.97;5.63;;;;;;;13.02;63.97;102175.97;6228938;28;20959;-52
2021/05/28 06:47:02;;;;;;;5.93;5.33;;;;;;;12.93;65.15;102171.63;6238399;28;20628;-47
2021/05/28 06:50:23;;;;;;;5.73;5.13;;;;;;;12.89;63.96;102174.19;6228141;28;20235;-49
2021/05/28 06:53:43;;;;;;;6.67;5.60;;;;;;;12.95;64.50;102180.34;6231547;28;20235;-52
2021/05/28 06:57:05;;;;;;;7.13;5.37;;;;;;;13.14;63.90;102186.50;6243348;28;20514;-46
2021/05/28 07:00:26;;;;;;;6.70;5.57;;;;;;;12.96;63.72;102181.19;6235522;28;20241;-56
2021/05/28 07:03:46;;;;;;;7.67;5.37;;;;;;;12.65;64.93;102188.06;6234395;28;20252;-51
2021/05/28 07:07:06;;;;;;;12.20;6.50;;;;;;;12.60;65.28;102185.41;6242757;28;20228;-50
2021/05/28 07:10:28;;;;;;;9.33;5.97;;;;;;;11.96;67.32;102198.97;6240621;28;20231;-54
2021/05/28 07:13:49;;;;;;;11.47;6.13;;;;;;;12.25;66.87;102201.78;6240543;28;20232;-54
2021/05/28 07:17:10;;;;;;;7.60;6.90;;;;;;;12.46;65.91;102210.63;6246529;28;20235;-55
2021/05/28 07:20:32;;;;;;;11.40;7.77;;;;;;;12.47;65.06;102208.00;6247992;28;20448;-55
2021/05/28 07:23:52;;;;;;;11.20;8.30;;;;;;;12.14;66.46;102208.69;6246326;28;20238;-49
2021/05/28 07:27:12;;;;;;;10.23;8.33;;;;;;;12.09;67.02;102215.63;6243387;28;20231;-50
2021/05/28 07:30:34;;;;;;;9.23;8.17;;;;;;;12.38;65.80;102213.19;6240867;28;20227;-53
2021/05/28 07:33:54;;;;;;;13.67;7.17;;;;;;;11.83;66.73;102218.88;6235952;28;20235;-53
2021/05/28 07:37:14;;;;;;;11.50;8.50;;;;;;;12.43;64.77;102215.81;6245601;28;20227;-52
2021/05/28 07:40:35;;;;;;;10.63;7.77;;;;;;;12.71;63.50;102217.69;6250426;28;20232;-51
2021/05/28 07:43:55;;;;;;;9.17;6.50;;;;;;;13.02;62.59;102223.06;6246776;28;20243;-52
2021/05/28 07:47:17;;;;;;;8.57;6.63;;;;;;;12.87;66.62;102233.44;6244365;28;20536;-54
2021/05/28 07:50:47;;;;;;;9.37;7.20;;;;;;;13.35;63.97;102231.88;6248267;28;23733;-50
2021/05/28 07:54:09;;;;;;;8.53;7.53;;;;;;;13.34;64.04;102225.78;6251960;28;20488;-50
2021/05/28 07:57:30;;;;;;;11.00;8.27;;;;;;;13.48;61.98;102217.97;6251900;28;20255;-54
2021/05/28 08:00:50;;;;;;;13.30;7.73;;;;;;;14.03;61.98;102224.06;6247442;28;20247;-52
2021/05/28 08:04:12;;;;;;;10.17;8.70;;;;;;;14.24;59.45;102210.94;6254227;28;20235;-55
2021/05/28 08:07:33;;;;;;;12.33;7.90;;;;;;;13.57;60.49;102210.13;6242619;28;20228;-55
2021/05/28 08:10:53;;;;;;;12.70;8.00;;;;;;;12.99;62.34;102225.69;6244865;28;20232;-51
2021/05/28 08:14:14;;;;;;;13.50;8.03;;;;;;;13.67;61.03;102225.84;6247407;28;20235;-51
2021/05/28 08:17:34;;;;;;;8.87;7.53;;;;;;;14.31;59.24;102230.16;6248937;28;20220;-53
2021/05/28 08:20:56;;;;;;;13.70;7.43;;;;;;;14.02;59.54;102222.34;6217319;28;20243;-54
2021/05/28 08:24:17;;;;;;;11.13;7.63;;;;;;;14.14;59.77;102230.19;6248876;28;20231;-54
2021/05/28 08:27:38;;;;;;;8.37;6.90;;;;;;;14.27;60.03;102226.66;6246258;28;20239;-52
2021/05/28 08:30:59;;;;;;;11.20;8.00;;;;;;;14.02;59.49;102223.22;6235965;28;20239;-51
2021/05/28 08:34:19;;;;;;;11.50;8.23;;;;;;;13.84;59.98;102226.72;6252175;28;20236;-54
2021/05/28 08:37:40;;;;;;;11.93;6.60;;;;;;;14.34;59.31;102231.00;6247379;28;20231;-49
2021/05/28 08:41:01;;;;;;;9.60;8.20;;;;;;;14.73;58.52;102234.44;6250589;28;20231;-55
2021/05/28 08:44:25;;;;;;;11.70;7.80;;;;;;;14.49;58.70;102234.47;6245787;28;20227;-54
2021/05/28 08:47:45;;;;;;;10.67;7.97;;;;;;;14.55;59.22;102240.56;6251092;28;20232;-49
2021/05/28 08:51:06;;;;;;;11.77;9.93;;;;;;;14.09;59.43;102238.03;6247438;28;20239;-54
2021/05/28 08:54:30;;;;;;;11.87;8.47;;;;;;;14.56;59.77;102234.47;6245601;28;20239;-55
2021/05/28 08:57:51;;;;;;;9.97;8.93;;;;;;;14.89;58.26;102242.25;6252139;28;20232;-52
2021/05/28 09:01:12;;;;;;;12.93;9.27;;;;;;;14.96;57.29;102244.78;6252782;28;20230;-52
2021/05/28 09:04:33;;;;;;;8.87;7.93;;;;;;;15.05;57.07;102233.41;6251448;28;20235;-53
2021/05/28 09:07:55;;;;;;;8.93;7.97;;;;;;;15.35;56.20;102231.47;6253321;28;20232;-53
2021/05/28 09:11:18;;;;;;;11.50;7.67;;;;;;;15.10;56.10;102223.75;6248394;28;20235;-54
2021/05/28 09:14:41;;;;;;;8.80;7.73;;;;;;;15.79;54.79;102226.81;6254048;28;20224;-54
2021/05/28 09:18:01;;;;;;;8.57;6.87;;;;;;;15.89;53.72;102218.81;6243541;28;20232;-54
2021/05/28 09:21:25;;;;;;;10.73;7.70;;;;;;;15.51;55.23;102227.00;6251035;28;20232;-50
2021/05/28 09:24:45;;;;;;;7.73;6.67;;;;;;;15.18;56.11;102233.31;6242253;28;20292;-54
2021/05/28 09:28:09;;;;;;;14.67;10.23;;;;;;;15.35;56.20;102237.63;6242042;28;20255;-51
2021/05/28 09:31:32;;;;;;;10.37;8.23;;;;;;;15.45;56.46;102238.44;6249978;28;20280;-51
2021/05/28 09:34:53;;;;;;;11.47;7.17;;;;;;;15.15;57.01;102248.22;6246086;28;20249;-53
2021/05/28 09:38:20;;;;;;;9.03;8.07;;;;;;;14.88;57.27;102256.22;6249019;28;26033;-48
2021/05/28 09:41:45;;;;;;;12.10;8.13;;;;;;;14.75;58.60;102253.66;6253131;28;20227;-55
2021/05/28 09:45:29;;;;;;;12.87;8.40;;;;;;;14.99;57.55;102251.81;6244679;28;20232;-53
2021/05/28 09:49:05;;;;;;;10.07;8.20;;;;;;;15.28;56.22;102250.78;6239131;28;20231;-54
2021/05/28 09:52:28;;;;;;;9.13;8.00;;;;;;;16.43;53.69;102241.09;6246078;28;20239;-50
2021/05/28 09:55:48;;;;;;;9.43;7.57;;;;;;;16.05;53.94;102239.72;6243817;28;20274;-50
2021/05/28 09:59:09;;;;;;;13.77;7.90;;;;;;;16.57;53.50;102238.31;6240262;28;20231;-54
2021/05/28 10:02:32;;;;;;;10.47;6.70;;;;;;;17.19;51.81;102228.75;6244590;28;20232;-54
2021/05/28 10:05:56;;;;;;;8.47;6.73;;;;;;;17.45;50.17;102225.75;6244220;28;20228;-55
2021/05/28 10:09:17;;;;;;;12.57;6.60;;;;;;;17.28;50.40;102231.25;6253180;28;20504;-49
2021/05/28 10:12:38;;;;;;;8.73;7.83;;;;;;;16.48;53.18;102228.78;6243841;28;20227;-53
2021/05/28 10:15:58;;;;;;;7.07;6.10;;;;;;;16.26;53.06;102228.97;6243044;28;20236;-54
2021/05/28 10:19:20;;;;;;;11.47;7.57;;;;;;;16.25;53.60;102227.25;6243785;28;20232;-55
2021/05/28 10:22:41;;;;;;;7.27;6.53;;;;;;;16.54;53.47;102233.97;6240676;28;20219;-54
2021/05/28 10:26:02;;;;;;;8.63;6.90;;;;;;;16.43;53.54;102241.09;6250658;28;20905;-53
2021/05/28 10:29:26;;;;;;;10.40;6.73;;;;;;;15.92;54.99;102239.84;6244861;28;20227;-56
2021/05/28 10:33:18;;;;;;;11.27;6.67;;;;;;;16.56;53.25;102226.94;6246516;28;20235;-52
2021/05/28 10:36:41;;;;;;;8.83;6.63;;;;;;;16.17;55.22;102234.34;6249018;28;20285;-55
2021/05/28 10:40:04;;;;;;;8.63;7.37;;;;;;;16.55;53.53;102225.16;6254520;28;20232;-53
2021/05/28 10:43:26;;;;;;;9.60;6.17;;;;;;;17.44;51.83;102217.88;6246665;28;20235;-54
2021/05/28 10:47:18;;;;;;;8.63;6.00;;;;;;;17.09;52.17;102219.25;6244156;28;20228;-52
2021/05/28 10:50:48;;;;;;;12.25;6.90;;;;;;;16.83;52.57;102217.00;6236984;28;21114;-53
2021/05/28 10:54:28;;;;;;;10.65;7.15;;;;;;;16.86;52.64;102219.56;6253386;28;20227;-52
2021/05/28 10:57:52;;;;;;;11.70;6.60;;;;;;;16.64;53.35;102209.28;6259166;28;20235;-54
2021/05/28 11:01:44;;;;;;;8.50;6.77;;;;;;;17.17;52.57;102208.63;6252218;28;20584;-49
2021/05/28 11:05:05;;;;;;;10.68;6.72;;;;;;;17.68;51.06;102206.94;6242955;28;20228;-51
2021/05/28 11:08:44;;;;;;;6.68;5.68;;;;;;;17.66;50.69;102203.47;6253445;28;20228;-52
2021/05/28 11:12:07;;;;;;;8.38;6.60;;;;;;;18.20;49.48;102207.81;6243029;28;20235;-51
2021/05/28 11:15:28;;;;;;;10.40;6.07;;;;;;;17.99;49.29;102201.19;6253116;28;20227;-54
2021/05/28 11:18:49;;;;;;;9.50;6.15;;;;;;;17.41;50.83;102215.28;6260116;28;20224;-53
2021/05/28 11:22:12;;;;;;;7.20;5.93;;;;;;;17.74;49.88;102205.97;6248276;28;20224;-51
2021/05/28 11:25:32;;;;;;;8.63;6.00;;;;;;;17.80;49.49;102200.59;6253642;28;20228;-56
2021/05/28 11:28:56;;;;;;;8.75;5.85;;;;;;;18.16;48.47;102211.41;6254030;28;20244;-52
2021/05/28 11:32:30;;;;;;;8.48;6.60;;;;;;;18.59;48.15;102204.41;6251876;28;20224;-52
2021/05/28 11:35:50;;;;;;;7.68;6.47;;;;;;;18.13;48.50;102208.84;6255923;28;20573;-50
2021/05/28 11:39:21;;;;;;;10.13;6.67;;;;;;;18.09;49.31;102215.94;6252317;28;20247;-52
2021/05/28 11:42:43;;;;;;;10.15;6.35;;;;;;;18.45;48.07;102215.25;6242361;28;20322;-54
2021/05/28 11:46:04;;;;;;;9.02;5.75;;;;;;;18.70;47.91;102211.19;6246973;28;20236;-54
2021/05/28 11:49:25;;;;;;;8.93;5.95;;;;;;;17.96;48.96;102216.19;6252558;28;20228;-55
2021/05/28 11:53:01;;;;;;;8.95;6.00;;;;;;;18.39;48.31;102204.81;6219004;28;20629;-51
2021/05/28 11:56:23;;;;;;;8.40;5.63;;;;;;;18.65;47.68;102212.19;6232684;28;20236;-52
2021/05/28 11:59:50;;;;;;;8.25;6.20;;;;;;;18.51;48.11;102220.41;6226516;28;20303;-53
2021/05/28 12:03:12;;;;;;;7.50;5.13;;;;;;;17.95;48.67;102215.31;6225653;28;20237;-52
2021/05/28 12:06:34;;;;;;;6.53;5.68;;;;;;;18.62;46.75;102222.84;6223160;28;20252;-50
2021/05/28 12:10:03;;;;;;;7.88;5.60;;;;;;;18.03;48.23;102217.78;6232590;28;20240;-51
2021/05/28 12:13:24;;;;;;;6.55;5.35;;;;;;;18.38;48.06;102217.16;6226901;28;20543;-52
2021/05/28 12:16:47;;;;;;;10.93;5.65;;;;;;;17.43;49.63;102224.91;6241306;28;20228;-54
2021/05/28 12:20:15;;;;;;;8.63;5.72;;;;;;;17.15;51.57;102226.22;6229306;28;20261;-53
2021/05/28 12:23:36;;;;;;;7.60;4.47;;;;;;;17.37;51.26;102217.13;6222295;28;20299;-52
2021/05/28 12:26:57;;;;;;;5.80;5.10;;;;;;;17.44;51.15;102218.75;6224197;28;20603;-51
2021/05/28 12:30:23;;;;;;;9.33;5.43;;;;;;;17.31;51.52;102218.06;6236826;28;20239;-52
2021/05/28 12:33:49;;;;;;;7.43;5.40;;;;;;;16.99;52.30;102215.03;6197769;28;20224;-56
2021/05/28 12:37:15;;;;;;;5.73;4.10;;;;;;;18.22;51.80;102213.94;6225266;28;20546;-52
2021/05/28 12:40:37;;;;;;;8.53;5.03;;;;;;;18.32;51.03;102204.09;6234077;28;20518;-51
2021/05/28 12:43:59;;;;;;;7.90;5.40;;;;;;;18.37;49.02;102204.00;6224475;28;20237;-51
2021/05/28 12:47:20;;;;;;;7.55;5.63;;;;;;;17.80;49.97;102200.59;6232177;28;20236;-49
2021/05/28 12:50:43;;;;;;;11.07;5.80;;;;;;;17.76;51.47;102206.81;6231939;28;20237;-51
2021/05/28 12:54:18;;;;;;;9.97;4.40;;;;;;;17.68;50.94;102206.06;6233990;28;20267;-52
2021/05/28 12:57:38;;;;;;;7.85;5.93;;;;;;;18.01;49.75;102199.38;6231075;28;20605;-51
2021/05/28 13:01:01;;;;;;;5.97;4.80;;;;;;;18.47;49.97;102208.16;6236928;28;20243;-57
2021/05/28 13:04:23;;;;;;;6.88;5.00;;;;;;;18.41;48.56;102206.53;6234167;28;20227;-51
2021/05/28 13:07:44;;;;;;;7.95;4.57;;;;;;;19.29;45.82;102194.13;6234331;28;20227;-54
2021/05/28 13:11:05;;;;;;;9.45;4.80;;;;;;;19.38;47.39;102191.25;6241590;28;20521;-52
2021/05/28 13:14:30;;;;;;;7.40;4.63;;;;;;;20.85;42.77;102202.31;6232941;28;20328;-54
2021/05/28 13:17:55;;;;;;;8.30;4.20;;;;;;;19.35;44.89;102208.94;6235868;28;20283;-54
2021/05/28 13:21:30;;;;;;;7.05;3.95;;;;;;;21.16;42.63;102189.91;6208473;28;20244;-49
2021/05/28 13:24:50;;;;;;;8.85;5.05;;;;;;;19.14;46.43;102194.47;6219673;28;20236;-52
2021/05/28 13:28:13;;;;;;;4.95;3.78;;;;;;;18.55;47.53;102200.09;6241506;28;20231;-53
2021/05/28 13:31:41;;;;;;;8.00;5.30;;;;;;;18.52;47.84;102197.53;6236309;28;20637;-51
2021/05/28 13:35:03;;;;;;;7.97;5.07;;;;;;;18.56;48.18;102200.06;6220578;28;20767;-53
2021/05/28 13:42:03;;;;;;;8.73;4.40;;;;;;;18.24;48.96;102192.78;6237255;28;20261;-51
2021/05/28 13:53:19;;;;;;;6.57;4.55;;;;;;;18.84;46.84;102202.16;6234225;28;20525;-52
2021/05/28 13:56:58;;;;;;;8.80;5.25;;;;;;;18.94;46.88;102193.16;6227798;28;20229;-52
2021/05/28 14:00:18;;;;;;;4.85;4.35;;;;;;;18.25;48.33;102186.63;6222207;28;20244;-51
2021/05/28 14:03:40;;;;;;;8.43;4.10;;;;;;;18.06;49.23;102189.63;6241210;28;20236;-50
2021/05/28 14:07:01;;;;;;;6.82;4.30;;;;;;;18.14;49.70;102188.59;6247131;28;20252;-55
2021/05/28 14:10:22;;;;;;;7.78;4.18;;;;;;;17.85;48.99;102187.38;6254133;28;20333;-50
2021/05/28 14:13:43;;;;;;;7.15;5.18;;;;;;;18.05;47.81;102179.13;6240057;28;20626;-52
2021/05/28 14:17:03;;;;;;;6.55;5.07;;;;;;;18.14;48.04;102189.47;6226994;28;20968;-53
2021/05/28 14:20:25;;;;;;;7.32;4.43;;;;;;;18.19;47.73;102182.34;6246440;28;20231;-50
2021/05/28 14:23:45;;;;;;;9.55;4.75;;;;;;;19.45;44.70;102179.63;6261044;28;20235;-52
2021/05/28 14:27:06;;;;;;;5.75;4.50;;;;;;;18.84;46.47;102186.31;6263835;28;20236;-51
2021/05/28 14:30:28;;;;;;;7.00;4.50;;;;;;;19.07;46.06;102184.03;6238387;28;20231;-52
2021/05/28 14:33:54;;;;;;;5.38;3.95;;;;;;;19.34;45.47;102189.56;6251910;28;20236;-50
2021/05/28 14:37:15;;;;;;;10.15;4.07;;;;;;;18.03;48.36;102192.31;6244132;28;20232;-51
2021/05/28 14:40:36;;;;;;;11.57;4.57;;;;;;;18.49;47.02;102195.81;6232172;28;20224;-52
2021/05/28 14:43:57;;;;;;;5.70;3.40;;;;;;;18.42;47.34;102207.41;6242037;28;20244;-51
2021/05/28 14:47:17;;;;;;;5.00;4.10;;;;;;;17.97;47.96;102212.63;6241094;28;20231;-51
2021/05/28 14:50:38;;;;;;;8.65;4.28;;;;;;;17.87;48.79;102207.56;6241410;28;20228;-50
2021/05/28 14:53:59;;;;;;;11.75;4.55;;;;;;;18.02;48.75;102214.28;6255376;28;20914;-52
2021/05/28 14:57:19;;;;;;;7.55;4.15;;;;;;;17.82;49.37;102211.97;6258883;28;20232;-49
2021/05/28 15:00:40;;;;;;;4.80;3.08;;;;;;;17.66;49.57;102213.13;6258966;28;20231;-53
2021/05/28 15:04:02;;;;;;;5.55;3.85;;;;;;;18.15;47.84;102208.81;6263933;28;20231;-53
2021/05/28 15:07:22;;;;;;;4.18;3.20;;;;;;;18.16;47.08;102207.91;6260786;28;20394;-53
2021/05/28 15:10:45;;;;;;;4.82;3.63;;;;;;;17.42;48.91;102207.34;6261637;28;20330;-52
2021/05/28 15:14:07;;;;;;;4.03;3.55;;;;;;;17.28;49.52;102211.97;6249253;28;20231;-53
2021/05/28 15:17:28;;;;;;;7.82;5.60;;;;;;;17.28;50.63;102211.97;6259397;28;20240;-51
2021/05/28 15:20:49;;;;;;;13.10;5.03;;;;;;;17.31;50.36;102214.53;6260235;28;20523;-51
2021/05/28 15:24:09;;;;;;;7.32;4.43;;;;;;;16.78;51.44;102217.00;6256223;28;20236;-54
2021/05/28 15:27:32;;;;;;;5.70;4.17;;;;;;;17.01;50.96;102216.75;6226148;28;20637;-49
2021/05/28 15:30:53;;;;;;;9.50;4.50;;;;;;;16.89;51.33;102219.53;6259062;28;20244;-54
2021/05/28 15:34:13;;;;;;;6.30;4.03;;;;;;;16.83;51.69;102214.38;6258518;28;20575;-50
2021/05/28 15:37:34;;;;;;;7.87;4.37;;;;;;;16.81;51.54;102216.09;6254182;28;20231;-51
2021/05/28 15:40:54;;;;;;;7.47;3.90;;;;;;;17.19;50.66;102217.38;6256523;28;20233;-51
2021/05/28 15:44:16;;;;;;;6.93;4.27;;;;;;;16.59;51.98;102220.75;6256650;28;20227;-52
2021/05/28 15:47:38;;;;;;;7.43;6.57;;;;;;;16.62;51.90;102228.63;6253970;28;20220;-46
2021/05/28 15:50:59;;;;;;;11.73;6.73;;;;;;;16.58;52.39;102233.03;6247681;28;20227;-53